createdAt,value
2018-11-22T00:02:06.539Z,86.22
2018-11-22T00:04:36.862Z,86.15
2018-11-22T00:07:07.186Z,86.44
2018-11-22T00:09:37.504Z,86.54
2018-11-22T00:12:08.083Z,86.61
2018-11-22T00:14:38.482Z,86.89
2018-11-22T00:17:08.898Z,87.24
2018-11-22T00:19:39.479Z,87.37
2018-11-22T00:22:10.162Z,87.51
2018-11-22T00:24:40.413Z,87.58
2018-11-22T00:27:10.982Z,87.53
2018-11-22T00:29:41.190Z,87.63
2018-11-22T00:32:11.506Z,88.04
2018-11-22T00:34:42.985Z,88.40
2018-11-22T00:37:13.418Z,88.02
2018-11-22T12:16:20.440Z,82.77
2018-11-22T12:18:50.982Z,82.87
2018-11-22T12:21:21.168Z,83.31
2018-11-22T12:23:52.133Z,83.00
2018-11-22T12:26:22.414Z,82.56
2018-11-22T12:28:52.782Z,83.14
2018-11-22T12:31:23.547Z,82.84
2018-11-22T12:33:59.531Z,83.02
2018-11-22T12:36:34.923Z,83.08
2018-11-22T12:39:08.510Z,83.51
2018-11-22T12:41:39.693Z,83.44
2018-11-22T12:44:09.949Z,83.30
2018-11-22T12:46:40.691Z,83.58
2018-11-22T12:49:11.240Z,83.16
2018-11-22T12:51:41.475Z,83.48
2018-11-22T12:54:11.964Z,83.56
2018-11-22T12:56:42.305Z,83.69
2018-11-22T12:59:12.644Z,83.77
2018-11-22T13:01:42.997Z,83.62
2018-11-22T13:04:13.241Z,83.74
2018-11-22T13:06:44.454Z,83.85
2018-11-22T13:11:51.135Z,83.86
2018-11-22T13:14:22.012Z,84.00
2018-11-22T13:16:53.211Z,84.31
2018-11-22T13:19:23.515Z,84.10
2018-11-22T13:21:54.796Z,84.55
2018-11-22T13:24:25.218Z,84.31
2018-11-22T13:26:56.384Z,84.50
2018-11-22T13:29:26.595Z,84.33
2018-11-22T13:31:57.080Z,84.50
2018-11-22T13:34:27.523Z,84.41
2018-11-22T13:36:57.704Z,84.63
2018-11-22T13:39:28.321Z,84.42
2018-11-22T13:41:58.813Z,84.84
2018-11-22T13:44:30.088Z,84.63
2018-11-22T13:47:00.401Z,84.47
2018-11-22T13:49:30.893Z,84.76
2018-11-22T13:52:01.379Z,85.22
2018-11-22T13:54:32.517Z,84.89
2018-11-22T13:57:03.219Z,84.58
2018-11-22T13:59:33.413Z,84.76
2018-11-22T14:02:03.815Z,85.08
2018-11-22T14:04:34.574Z,85.10
2018-11-22T14:07:05.615Z,84.99
2018-11-22T14:09:35.743Z,85.03
2018-11-22T14:12:06.129Z,84.76
2018-11-22T14:14:37.125Z,84.63
2018-11-22T14:17:07.535Z,84.61
2018-11-22T14:19:38.365Z,84.55
2018-11-22T14:22:08.608Z,84.37
2018-11-22T14:24:39.351Z,84.59
2018-11-22T14:27:10.477Z,84.93
2018-11-22T14:29:40.645Z,85.02
2018-11-22T14:32:11.153Z,84.85
2018-11-22T14:34:41.538Z,85.22
2018-11-22T14:37:11.949Z,85.16
2018-11-22T14:39:43.064Z,85.22
2018-11-22T14:42:13.459Z,85.26
2018-11-22T14:44:43.976Z,85.53
2018-11-22T14:47:14.453Z,85.14
2018-11-22T14:49:44.902Z,85.49
2018-11-22T14:52:15.578Z,85.70
2018-11-22T14:54:45.994Z,85.55
2018-11-22T14:57:16.291Z,85.58
2018-11-22T14:59:47.474Z,86.16
2018-11-22T15:02:17.855Z,85.74
2018-11-22T15:04:48.409Z,85.81
2018-11-22T15:07:19.328Z,85.88
2018-11-22T15:09:49.742Z,86.19
2018-11-22T15:12:19.968Z,85.97
2018-11-22T15:14:51.079Z,86.10
2018-11-22T15:17:21.731Z,86.24
2018-11-22T15:19:51.998Z,86.34
2018-11-22T15:22:22.243Z,86.21
2018-11-22T15:24:52.497Z,86.18
2018-11-22T15:27:22.955Z,86.14
2018-11-22T15:29:53.826Z,86.29
2018-11-22T15:32:24.079Z,86.36
2018-11-22T15:34:54.249Z,86.12
2018-11-22T15:37:24.526Z,86.74
2018-11-22T15:39:54.961Z,86.39
2018-11-22T15:42:25.186Z,86.30
2018-11-22T15:44:55.485Z,86.46
2018-11-22T15:47:25.707Z,86.34
2018-11-22T15:49:56.061Z,86.43
2018-11-22T15:52:26.872Z,86.26
2018-11-22T15:54:57.464Z,86.20
2018-11-22T15:57:27.739Z,85.99
2018-11-22T15:59:58.078Z,86.49
2018-11-22T16:02:28.310Z,86.55
2018-11-22T16:04:59.093Z,86.14
2018-11-22T16:07:29.930Z,86.68
2018-11-22T16:10:00.473Z,86.63
2018-11-22T16:12:31.531Z,86.50
2018-11-22T16:15:02.439Z,86.74
2018-11-22T16:17:33.146Z,86.46
2018-11-22T16:20:03.432Z,86.54
2018-11-22T16:22:33.984Z,85.98
2018-11-22T16:25:05.090Z,85.88
2018-11-22T16:27:35.865Z,86.05
2018-11-22T16:30:11.099Z,85.45
2018-11-22T16:32:42.007Z,85.34
2018-11-22T16:35:13.929Z,85.91
2018-11-22T16:37:44.693Z,85.90
2018-11-22T16:40:17.511Z,85.54
2018-11-22T16:42:48.899Z,85.33
2018-11-22T16:45:21.572Z,85.42
2018-11-22T16:47:51.963Z,85.56
2018-11-22T16:50:24.599Z,85.74
2018-11-22T16:52:55.727Z,85.53
2018-11-22T16:55:26.751Z,85.27
2018-11-22T16:57:58.338Z,85.60
2018-11-22T17:00:36.013Z,85.51
2018-11-22T17:03:09.299Z,85.75
2018-11-22T17:05:39.903Z,85.81
2018-11-22T17:08:10.831Z,85.52
2018-11-22T17:10:41.594Z,85.31
2018-11-22T17:13:11.876Z,85.28
2018-11-22T17:15:43.004Z,85.62
2018-11-22T17:18:13.437Z,85.32
2018-11-22T17:20:44.527Z,85.48
2018-11-22T17:23:15.560Z,85.51
2018-11-22T17:25:46.052Z,85.22
2018-11-22T17:28:17.109Z,85.54
2018-11-22T17:30:47.315Z,85.40
2018-11-22T17:33:18.252Z,85.09
2018-11-22T17:35:51.627Z,84.92
2018-11-22T17:38:22.039Z,85.25
2018-11-22T17:43:33.239Z,84.74
2018-11-22T17:46:04.290Z,84.91
2018-11-22T17:48:35.219Z,84.67
2018-11-22T17:51:06.311Z,84.81
2018-11-22T17:53:37.320Z,84.68
2018-11-22T17:56:08.323Z,84.85
2018-11-22T17:58:38.652Z,84.23
2018-11-22T18:01:14.505Z,84.31
2018-11-22T18:03:39.327Z,84.67
2018-11-22T18:06:10.218Z,84.64
2018-11-22T18:08:45.053Z,84.80
2018-11-22T18:11:15.967Z,84.48
2018-11-22T18:13:46.836Z,84.73
2018-11-22T18:16:17.293Z,84.41
2018-11-22T18:18:47.833Z,84.86
2018-11-22T18:21:18.046Z,84.93
2018-11-22T18:23:48.709Z,84.66
2018-11-22T18:26:20.081Z,84.56
2018-11-22T18:31:26.291Z,84.79
2018-11-22T18:33:57.057Z,84.51
2018-11-22T18:36:27.785Z,84.28
2018-11-22T18:41:34.241Z,84.51
2018-11-22T18:44:05.331Z,84.38
2018-11-22T18:46:35.894Z,84.34
2018-11-22T18:49:06.485Z,84.34
2018-11-22T18:51:36.747Z,84.21
2018-11-22T18:54:07.016Z,84.01
2018-11-22T18:56:37.389Z,84.21
2018-11-22T18:59:07.625Z,84.30
2018-11-22T19:01:44.899Z,84.33
2018-11-22T19:04:11.363Z,84.49
2018-11-22T19:06:42.356Z,84.73
2018-11-22T19:09:12.534Z,84.90
2018-11-22T19:11:42.742Z,84.47
2018-11-22T19:14:13.410Z,84.93
2018-11-22T19:16:48.230Z,84.96
2018-11-22T19:19:18.442Z,84.37
2018-11-22T19:21:48.836Z,84.81
2018-11-22T19:24:19.067Z,84.78
2018-11-22T19:26:49.653Z,85.13
2018-11-22T19:29:19.905Z,84.96
2018-11-22T19:31:50.202Z,85.32
2018-11-22T19:34:20.802Z,84.86
2018-11-22T19:36:51.192Z,85.01
2018-11-22T19:39:23.390Z,84.92
2018-11-22T19:41:54.131Z,84.44
2018-11-22T19:44:24.545Z,84.26
2018-11-22T19:46:54.948Z,84.71
2018-11-22T19:49:25.706Z,84.34
2018-11-22T19:51:56.082Z,84.26
2018-11-22T19:54:26.512Z,84.39
2018-11-22T19:56:56.919Z,84.22
2018-11-22T19:59:27.345Z,84.12
2018-11-22T20:01:57.877Z,84.87
2018-11-22T20:04:28.271Z,84.60
2018-11-22T20:06:58.697Z,84.66
2018-11-22T20:09:29.158Z,84.45
2018-11-22T20:11:59.569Z,84.62
2018-11-22T20:14:29.736Z,84.75
2018-11-22T20:17:00.074Z,84.52
2018-11-22T20:19:30.337Z,84.62
2018-11-22T20:22:01.523Z,84.81
2018-11-22T20:24:32.666Z,84.73
2018-11-22T20:27:06.982Z,84.86
2018-11-22T20:29:37.207Z,84.84
2018-11-22T20:32:07.469Z,85.17
2018-11-22T20:34:37.880Z,85.10
2018-11-22T20:39:44.643Z,85.06
2018-11-22T20:42:15.082Z,85.79
2018-11-22T20:44:45.628Z,85.28
2018-11-22T20:47:16.033Z,85.65
2018-11-22T20:49:46.569Z,85.39
2018-11-22T20:52:17.313Z,85.70
2018-11-22T20:54:47.659Z,85.46
2018-11-22T20:57:18.051Z,85.81
2018-11-22T20:59:48.498Z,85.83
2018-11-22T21:02:19.523Z,85.72
2018-11-22T21:04:50.078Z,85.45
2018-11-22T21:07:21.179Z,85.61
2018-11-22T21:09:51.653Z,85.39
2018-11-22T21:12:22.672Z,85.59
2018-11-22T21:14:52.986Z,85.99
2018-11-22T21:17:24.110Z,86.10
2018-11-22T21:19:54.492Z,86.28
2018-11-22T21:22:24.975Z,85.93
2018-11-22T21:24:55.707Z,85.83
2018-11-22T21:27:26.633Z,86.17
2018-11-22T21:29:57.021Z,86.45
2018-11-22T21:32:27.183Z,86.59
2018-11-22T21:34:57.377Z,86.47
2018-11-22T21:37:27.712Z,86.66
2018-11-22T21:39:57.985Z,86.74
2018-11-22T21:42:28.350Z,86.34
2018-11-22T21:44:58.595Z,86.30
2018-11-22T21:47:28.985Z,86.46
2018-11-22T21:49:59.980Z,86.18
2018-11-22T21:52:30.205Z,86.33
2018-11-22T21:55:00.505Z,86.22
2018-11-22T21:57:33.518Z,86.38
2018-11-22T22:00:03.795Z,86.55
2018-11-22T22:02:33.977Z,86.49
2018-11-22T22:05:07.985Z,86.45
2018-11-22T22:07:38.623Z,86.94
2018-11-22T22:10:08.857Z,86.53
2018-11-22T22:12:39.883Z,86.30
2018-11-22T22:15:12.888Z,86.57
2018-11-22T22:17:43.944Z,86.45
2018-11-22T22:20:17.143Z,86.54
2018-11-22T22:22:47.561Z,86.33
2018-11-22T22:25:19.253Z,86.56
2018-11-22T22:27:50.406Z,86.47
2018-11-22T22:30:26.214Z,86.80
2018-11-22T22:32:57.857Z,86.59
2018-11-22T22:35:28.110Z,87.00
2018-11-22T22:37:58.413Z,87.08
2018-11-22T22:40:29.548Z,87.16
2018-11-22T22:43:00.357Z,87.65
2018-11-22T22:45:31.586Z,87.20
2018-11-22T22:48:01.862Z,87.55
2018-11-22T22:50:33.074Z,87.30
2018-11-22T22:53:03.530Z,87.41
2018-11-22T22:55:34.808Z,87.26
2018-11-22T22:58:06.064Z,87.33
2018-11-22T23:00:42.443Z,87.37
2018-11-22T23:05:53.041Z,87.64
2018-11-22T23:08:23.600Z,87.51
2018-11-22T23:10:54.053Z,87.23
2018-11-22T23:13:27.103Z,87.53
2018-11-22T23:15:57.522Z,87.63
2018-11-22T23:18:28.038Z,87.33
2018-11-22T23:20:58.425Z,87.40
2018-11-22T23:23:29.331Z,87.28
2018-11-22T23:26:00.384Z,87.52
2018-11-22T23:28:31.403Z,87.05
2018-11-22T23:31:01.733Z,87.18
2018-11-22T23:33:31.973Z,87.24
2018-11-22T23:36:02.273Z,87.50
2018-11-22T23:38:33.026Z,87.53
2018-11-22T23:41:03.364Z,87.67
2018-11-22T23:43:34.430Z,87.38
2018-11-22T23:46:05.864Z,87.33
2018-11-22T23:48:36.095Z,87.54
2018-11-22T23:51:09.244Z,87.67
2018-11-22T23:53:39.450Z,87.44
2018-11-22T23:56:10.430Z,87.53
2018-11-22T23:58:40.656Z,87.22
